createdAt,value
2022-08-07T00:00:26.755Z,79.25
2022-08-07T00:03:10.386Z,79.14
2022-08-07T00:05:39.589Z,79.08
2022-08-07T00:08:10.840Z,78.81
2022-08-07T00:10:48.360Z,78.75
2022-08-07T00:13:26.805Z,78.88
2022-08-07T00:15:56.206Z,78.99
2022-08-07T00:18:28.882Z,79.23
2022-08-07T00:21:03.434Z,79.33
2022-08-07T00:23:39.590Z,79.20
2022-08-07T00:26:31.435Z,79.24
2022-08-07T00:29:01.510Z,79.17
2022-08-07T00:31:37.576Z,79.15
2022-08-07T00:34:09.121Z,79.05
2022-08-07T00:36:43.244Z,78.95
2022-08-07T00:39:16.879Z,78.68
2022-08-07T00:42:02.307Z,78.80
2022-08-07T00:44:34.954Z,78.72
2022-08-07T00:47:16.150Z,78.87
2022-08-07T00:50:20.545Z,78.99
2022-08-07T00:52:47.518Z,79.00
2022-08-07T00:55:17.473Z,78.92
2022-08-07T00:57:55.361Z,79.02
2022-08-07T01:00:25.297Z,79.18
2022-08-07T01:03:56.827Z,78.86
2022-08-07T01:06:29.760Z,78.98
2022-08-07T01:09:01.227Z,79.25
2022-08-07T01:12:23.837Z,79.24
2022-08-07T01:14:28.371Z,79.14
2022-08-07T01:16:58.143Z,79.18
2022-08-07T01:19:32.407Z,79.34
2022-08-07T01:22:03.471Z,79.08
2022-08-07T01:24:42.088Z,79.01
2022-08-07T01:27:19.333Z,78.96
2022-08-07T01:29:50.669Z,78.82
2022-08-07T01:32:22.609Z,78.70
2022-08-07T01:34:54.864Z,78.60
2022-08-07T01:37:24.680Z,78.79
2022-08-07T01:40:02.443Z,78.95
2022-08-07T01:42:38.231Z,79.01
2022-08-07T01:45:18.146Z,79.14
2022-08-07T01:48:17.626Z,78.98
2022-08-07T01:50:47.758Z,79.12
2022-08-07T01:54:09.314Z,79.19
2022-08-07T01:56:16.530Z,79.19
2022-08-07T01:58:54.489Z,79.03
2022-08-07T02:01:59.897Z,79.14
2022-08-07T02:04:32.868Z,79.15
2022-08-07T02:07:07.651Z,79.56
2022-08-07T02:09:52.731Z,79.69
2022-08-07T02:12:30.887Z,79.64
2022-08-07T02:15:06.038Z,79.49
2022-08-07T02:17:49.586Z,79.48
2022-08-07T02:20:23.864Z,79.54
2022-08-07T02:22:59.874Z,79.38
2022-08-07T02:26:10.519Z,79.39
2022-08-07T02:28:24.600Z,79.24
2022-08-07T02:30:57.480Z,79.27
2022-08-07T02:33:42.045Z,79.49
2022-08-07T02:36:30.296Z,79.70
2022-08-07T02:39:16.400Z,79.51
2022-08-07T02:41:54.368Z,79.53
2022-08-07T02:44:27.638Z,79.35
2022-08-07T02:47:02.949Z,79.53
2022-08-07T02:49:58.592Z,79.71
2022-08-07T02:52:35.026Z,79.60
2022-08-07T02:55:27.967Z,79.63
2022-08-07T02:58:07.114Z,79.79
2022-08-07T03:00:40.899Z,79.77
2022-08-07T03:03:21.056Z,79.56
2022-08-07T03:05:53.814Z,79.67
2022-08-07T03:08:26.782Z,79.76
2022-08-07T03:11:02.615Z,79.94
2022-08-07T03:13:49.976Z,79.96
2022-08-07T03:16:22.861Z,79.84
2022-08-07T03:18:57.093Z,79.98
2022-08-07T03:21:26.927Z,79.98
2022-08-07T03:24:20.116Z,80.02
2022-08-07T03:26:57.930Z,80.21
2022-08-07T03:29:39.841Z,80.57
2022-08-07T03:32:48.927Z,80.54
2022-08-07T03:35:26.084Z,80.80
2022-08-07T03:37:59.368Z,80.96
2022-08-07T03:40:36.198Z,81.06
2022-08-07T03:43:13.629Z,81.18
2022-08-07T03:45:47.468Z,81.66
2022-08-07T03:48:17.272Z,81.78
2022-08-07T03:50:55.992Z,82.08
2022-08-07T03:54:05.666Z,82.12
2022-08-07T03:56:33.011Z,81.07
2022-08-07T03:59:09.925Z,79.41
2022-08-07T04:01:46.433Z,77.83
2022-08-07T04:04:18.388Z,75.98
2022-08-07T04:06:51.729Z,73.84
2022-08-07T04:09:23.012Z,71.89
2022-08-07T04:12:21.312Z,69.95
2022-08-07T04:14:46.297Z,68.19
2022-08-07T04:17:21.212Z,67.35
2022-08-07T04:19:55.472Z,66.30
2022-08-07T04:22:30.058Z,66.04
2022-08-07T04:25:08.839Z,65.27
2022-08-07T04:27:45.935Z,63.14
2022-08-07T04:30:36.061Z,61.61
2022-08-07T04:33:18.046Z,61.24
2022-08-07T04:35:50.519Z,60.84
2022-08-07T04:38:23.056Z,59.69
2022-08-07T04:40:53.211Z,59.38
2022-08-07T04:44:14.589Z,60.69
2022-08-07T04:47:05.022Z,61.90
2022-08-07T04:50:03.560Z,61.93
2022-08-07T04:53:07.565Z,62.76
2022-08-07T04:58:12.970Z,63.45
2022-08-07T04:59:16.900Z,64.73
2022-08-07T05:01:55.667Z,65.71
2022-08-07T05:04:43.998Z,66.70
2022-08-07T05:07:23.314Z,67.52
2022-08-07T05:10:16.688Z,67.64
2022-08-07T05:12:56.225Z,68.40
2022-08-07T05:15:37.859Z,69.06
2022-08-07T05:18:13.386Z,69.01
2022-08-07T05:20:48.155Z,69.16
2022-08-07T05:23:29.917Z,69.70
2022-08-07T05:26:13.678Z,69.74
2022-08-07T05:28:51.567Z,69.95
2022-08-07T05:31:35.261Z,70.12
2022-08-07T05:34:11.204Z,70.69
2022-08-07T05:36:53.188Z,70.63
2022-08-07T05:40:13.596Z,70.09
2022-08-07T05:42:34.269Z,70.29
2022-08-07T05:45:26.313Z,70.24
2022-08-07T05:48:03.186Z,70.03
2022-08-07T05:50:42.886Z,69.99
2022-08-07T05:54:12.867Z,70.25
2022-08-07T05:56:06.153Z,70.38
2022-08-07T05:58:49.292Z,70.41
2022-08-07T06:01:23.116Z,70.31
2022-08-07T06:03:58.863Z,70.45
2022-08-07T06:06:34.422Z,70.00
2022-08-07T06:09:05.474Z,69.51
2022-08-07T06:11:38.639Z,69.19
2022-08-07T06:14:12.923Z,69.07
2022-08-07T06:16:55.987Z,69.39
2022-08-07T06:19:51.775Z,69.28
2022-08-07T06:22:24.156Z,69.92
2022-08-07T06:25:03.625Z,69.43
2022-08-07T06:27:59.734Z,68.86
2022-08-07T06:30:37.950Z,68.22
2022-08-07T06:33:16.576Z,68.40
2022-08-07T06:36:12.777Z,68.28
2022-08-07T06:38:58.581Z,68.41
2022-08-07T06:42:02.066Z,68.60
2022-08-07T06:45:11.237Z,68.55
2022-08-07T06:47:57.533Z,68.04
2022-08-07T06:50:43.061Z,68.67
2022-08-07T06:53:18.796Z,69.00
2022-08-07T06:56:14.877Z,68.20
2022-08-07T07:00:13.124Z,68.67
2022-08-07T07:01:42.134Z,68.39
2022-08-07T07:04:28.366Z,67.21
2022-08-07T07:07:10.827Z,67.80
2022-08-07T07:09:54.591Z,67.76
2022-08-07T07:12:31.067Z,67.68
2022-08-07T07:15:23.902Z,66.64
2022-08-07T07:17:58.108Z,66.50
2022-08-07T07:20:37.198Z,66.77
2022-08-07T07:24:08.317Z,65.35
2022-08-07T07:26:34.801Z,64.77
2022-08-07T07:29:56.858Z,66.47
2022-08-07T07:31:51.145Z,65.83
2022-08-07T07:34:30.882Z,65.70
2022-08-07T07:37:05.487Z,64.42
2022-08-07T07:39:55.288Z,64.14
2022-08-07T07:42:33.070Z,65.14
2022-08-07T07:45:04.516Z,65.68
2022-08-07T07:47:51.842Z,65.45
2022-08-07T07:50:33.945Z,64.73
2022-08-07T07:53:20.132Z,63.46
2022-08-07T07:56:00.427Z,63.78
2022-08-07T07:58:36.928Z,64.75
2022-08-07T08:02:01.775Z,64.38
2022-08-07T08:04:10.773Z,63.64
2022-08-07T08:06:50.863Z,64.54
2022-08-07T08:09:29.180Z,64.50
2022-08-07T08:12:03.006Z,63.20
2022-08-07T08:14:37.069Z,61.10
2022-08-07T08:17:55.362Z,61.90
2022-08-07T08:20:18.006Z,61.81
2022-08-07T08:23:11.327Z,60.96
2022-08-07T08:26:03.416Z,59.59
2022-08-07T08:28:39.832Z,59.02
2022-08-07T08:31:30.103Z,59.57
2022-08-07T08:34:12.407Z,60.68
2022-08-07T08:36:56.185Z,61.39
2022-08-07T08:39:38.961Z,61.17
2022-08-07T08:42:27.884Z,61.24
2022-08-07T08:45:19.942Z,61.79
2022-08-07T08:48:06.809Z,63.40
2022-08-07T08:50:54.598Z,63.92
2022-08-07T08:53:45.954Z,60.97
2022-08-07T08:56:24.654Z,60.95
2022-08-07T08:59:02.365Z,59.94
2022-08-07T09:01:49.122Z,60.60
2022-08-07T09:04:54.226Z,58.95
2022-08-07T09:07:46.245Z,59.72
2022-08-07T09:10:46.501Z,59.27
2022-08-07T09:13:43.528Z,59.84
2022-08-07T09:16:35.382Z,59.02
2022-08-07T09:19:53.691Z,58.08
2022-08-07T09:24:29.233Z,58.72
2022-08-07T09:25:27.982Z,58.38
2022-08-07T09:28:05.302Z,57.14
2022-08-07T09:31:20.701Z,56.65
2022-08-07T09:33:57.357Z,55.60
2022-08-07T09:36:36.972Z,54.50
2022-08-07T09:39:52.888Z,54.28
2022-08-07T09:42:46.409Z,53.28
2022-08-07T09:47:55.631Z,54.27
2022-08-07T09:50:01.015Z,54.50
2022-08-07T09:52:33.880Z,56.14
2022-08-07T09:56:03.695Z,56.27
2022-08-07T09:59:07.849Z,53.77
2022-08-07T10:02:13.496Z,53.92
2022-08-07T10:04:58.834Z,53.25
2022-08-07T10:08:13.856Z,53.02
2022-08-07T10:11:59.222Z,52.84
2022-08-07T10:14:01.992Z,53.06
2022-08-07T10:17:13.368Z,54.79
2022-08-07T10:20:45.569Z,54.49
2022-08-07T10:24:05.047Z,52.71
2022-08-07T10:26:51.785Z,52.58
2022-08-07T10:29:59.396Z,53.31
2022-08-07T10:34:06.854Z,54.11
2022-08-07T10:36:17.283Z,55.15
2022-08-07T10:39:09.010Z,55.53
2022-08-07T10:41:54.752Z,56.03
2022-08-07T10:44:45.136Z,56.77
2022-08-07T10:47:52.804Z,57.03
2022-08-07T10:50:26.633Z,55.72
2022-08-07T10:53:10.615Z,55.91
2022-08-07T10:55:45.508Z,53.85
2022-08-07T10:58:41.446Z,54.51
2022-08-07T11:01:35.289Z,53.67
2022-08-07T11:04:32.206Z,52.84
2022-08-07T11:07:58.923Z,51.81
2022-08-07T11:10:27.317Z,51.99
2022-08-07T11:14:44.102Z,53.00
2022-08-07T11:16:46.951Z,52.47
2022-08-07T11:19:27.793Z,52.90
2022-08-07T11:22:32.487Z,53.30
2022-08-07T11:25:26.446Z,54.04
2022-08-07T11:28:04.882Z,53.35
2022-08-07T11:30:43.246Z,52.00
2022-08-07T11:33:53.614Z,51.79
2022-08-07T11:36:32.634Z,52.05
2022-08-07T11:39:39.719Z,51.07
2022-08-07T11:42:29.794Z,51.52
2022-08-07T11:45:35.445Z,50.66
2022-08-07T11:48:29.238Z,52.13
2022-08-07T11:51:41.157Z,50.61
2022-08-07T11:54:37.685Z,49.69
2022-08-07T11:57:20.737Z,50.08
2022-08-07T12:00:19.337Z,50.07
2022-08-07T12:03:41.403Z,50.65
2022-08-07T12:06:36.987Z,49.06
2022-08-07T12:09:33.237Z,49.56
2022-08-07T12:12:14.088Z,49.74
2022-08-07T12:14:55.371Z,50.46
2022-08-07T12:17:58.847Z,50.91
2022-08-07T12:20:43.148Z,51.33
2022-08-07T12:24:06.808Z,51.08
2022-08-07T12:27:03.475Z,52.42
2022-08-07T12:29:59.018Z,50.54
2022-08-07T12:32:51.650Z,50.64
2022-08-07T12:35:24.051Z,49.51
2022-08-07T12:38:09.509Z,48.76
2022-08-07T12:40:47.794Z,48.02
2022-08-07T12:44:02.193Z,48.04
2022-08-07T12:46:26.647Z,47.77
2022-08-07T12:49:10.178Z,48.98
2022-08-07T12:52:23.518Z,49.30
2022-08-07T12:55:18.268Z,49.26
2022-08-07T12:58:01.118Z,49.16
2022-08-07T13:01:01.083Z,50.07
2022-08-07T13:04:05.232Z,49.93
2022-08-07T13:07:01.117Z,48.33
2022-08-07T13:10:36.717Z,47.52
2022-08-07T13:13:10.941Z,48.64
2022-08-07T13:15:56.086Z,47.86
2022-08-07T13:18:51.876Z,47.57
2022-08-07T13:21:57.494Z,47.38
2022-08-07T13:24:43.962Z,48.08
2022-08-07T13:27:33.309Z,48.53
2022-08-07T13:30:40.600Z,48.71
2022-08-07T13:33:16.460Z,49.83
2022-08-07T13:36:17.780Z,51.17
2022-08-07T13:40:33.517Z,49.93
2022-08-07T13:42:39.690Z,48.96
2022-08-07T13:46:06.091Z,47.59
2022-08-07T13:48:07.575Z,47.59
2022-08-07T13:50:44.866Z,47.26
2022-08-07T13:53:35.961Z,47.61
2022-08-07T13:56:36.389Z,47.89
2022-08-07T13:59:13.979Z,48.28
2022-08-07T14:02:04.137Z,49.11
2022-08-07T14:04:49.944Z,47.62
2022-08-07T14:07:25.971Z,47.76
2022-08-07T14:10:02.227Z,48.03
2022-08-07T14:13:00.458Z,47.98
2022-08-07T14:15:35.174Z,49.34
2022-08-07T14:18:24.493Z,47.76
2022-08-07T14:21:20.639Z,46.50
2022-08-07T14:24:06.163Z,46.66
2022-08-07T14:26:57.923Z,47.35
2022-08-07T14:30:09.765Z,47.01
2022-08-07T14:32:26.949Z,46.94
2022-08-07T14:34:55.958Z,46.86
2022-08-07T14:37:36.234Z,46.78
2022-08-07T14:40:25.703Z,48.38
2022-08-07T14:43:58.983Z,46.68
2022-08-07T14:46:11.450Z,46.20
2022-08-07T14:48:48.406Z,46.87
2022-08-07T14:54:33.028Z,48.75
2022-08-07T14:57:09.441Z,47.14
2022-08-07T15:00:03.463Z,47.24
2022-08-07T15:02:39.249Z,46.68
2022-08-07T15:05:19.820Z,47.29
2022-08-07T15:07:52.314Z,47.20
2022-08-07T15:10:29.903Z,46.89
2022-08-07T15:13:11.585Z,47.15
2022-08-07T15:15:52.664Z,46.39
2022-08-07T15:18:47.644Z,46.88
2022-08-07T15:30:17.041Z,45.90
2022-08-07T15:33:01.268Z,46.33
2022-08-07T15:36:01.490Z,46.72
2022-08-07T15:38:51.243Z,46.96
2022-08-07T15:42:43.799Z,47.34
2022-08-07T15:44:21.048Z,47.84
2022-08-07T15:47:08.988Z,48.08
2022-08-07T15:52:39.210Z,48.93
2022-08-07T15:55:13.230Z,49.55
2022-08-07T15:57:49.136Z,50.12
2022-08-07T16:00:31.767Z,49.68
2022-08-07T16:03:20.566Z,49.90
2022-08-07T16:05:52.821Z,50.06
2022-08-07T16:08:30.579Z,49.17
2022-08-07T16:11:27.171Z,49.21
2022-08-07T16:14:05.683Z,49.18
2022-08-07T16:17:15.180Z,49.63
2022-08-07T16:20:06.864Z,49.24
2022-08-07T16:22:55.118Z,49.51
2022-08-07T16:25:52.227Z,49.90
2022-08-07T16:30:05.457Z,49.86
2022-08-07T16:31:51.754Z,50.42
2022-08-07T16:34:45.286Z,50.21
2022-08-07T16:38:04.006Z,50.43
2022-08-07T16:40:30.826Z,50.64
2022-08-07T16:43:09.147Z,51.10
2022-08-07T16:50:29.244Z,51.32
2022-08-07T16:52:51.604Z,51.09
2022-08-07T16:55:18.549Z,51.05
2022-08-07T16:58:02.576Z,51.19
2022-08-07T17:00:41.584Z,51.49
2022-08-07T17:03:19.645Z,51.57
2022-08-07T17:06:31.536Z,51.98
2022-08-07T17:09:14.183Z,52.19
2022-08-07T17:12:04.578Z,52.33
2022-08-07T17:14:56.496Z,52.54
2022-08-07T17:17:27.125Z,52.65
2022-08-07T17:20:30.963Z,53.07
2022-08-07T17:23:20.384Z,53.34
2022-08-07T17:25:52.497Z,53.52
2022-08-07T17:28:38.269Z,53.96
2022-08-07T17:31:25.794Z,54.13
2022-08-07T17:34:34.204Z,54.40
2022-08-07T17:37:09.704Z,54.55
2022-08-07T17:40:08.726Z,54.90
2022-08-07T17:42:58.312Z,55.40
2022-08-07T17:45:35.156Z,55.44
2022-08-07T17:48:12.956Z,55.49
2022-08-07T17:50:42.560Z,55.74
2022-08-07T17:54:01.377Z,55.84
2022-08-07T17:56:33.179Z,56.09
2022-08-07T17:59:10.914Z,56.20
2022-08-07T18:02:14.662Z,56.31
2022-08-07T18:05:21.079Z,56.33
2022-08-07T18:08:24.305Z,56.59
2022-08-07T18:12:07.605Z,56.54
2022-08-07T18:14:01.864Z,56.63
2022-08-07T18:16:57.734Z,57.09
2022-08-07T18:21:05.802Z,57.04
2022-08-07T18:22:48.908Z,57.30
2022-08-07T18:25:40.254Z,57.67
2022-08-07T18:28:35.391Z,57.56
2022-08-07T18:31:07.550Z,58.17
2022-08-07T18:33:58.400Z,58.81
2022-08-07T18:37:09.272Z,58.88
2022-08-07T18:40:38.788Z,59.21
2022-08-07T18:43:06.766Z,60.10
2022-08-07T18:46:25.978Z,60.33
2022-08-07T18:50:30.174Z,61.45
2022-08-07T18:52:35.228Z,61.96
2022-08-07T18:55:42.086Z,62.12
2022-08-07T18:58:30.069Z,62.64
2022-08-07T19:01:02.672Z,62.57
2022-08-07T19:04:00.191Z,62.37
2022-08-07T19:06:55.621Z,62.72
2022-08-07T19:09:57.189Z,63.40
2022-08-07T19:12:28.456Z,63.79
2022-08-07T19:16:05.362Z,63.72
2022-08-07T19:18:34.712Z,63.78
2022-08-07T19:21:47.444Z,64.47
2022-08-07T19:24:30.496Z,64.48
2022-08-07T19:28:30.669Z,64.89
2022-08-07T19:31:05.751Z,65.06
2022-08-07T19:32:59.140Z,65.15
2022-08-07T19:35:33.191Z,65.36
2022-08-07T19:38:16.692Z,65.68
2022-08-07T19:40:50.675Z,65.80
2022-08-07T19:43:48.860Z,65.93
2022-08-07T19:46:26.556Z,65.95
2022-08-07T19:49:07.041Z,66.10
2022-08-07T19:51:52.499Z,66.17
2022-08-07T19:54:32.448Z,66.36
2022-08-07T19:58:02.804Z,66.56
2022-08-07T20:00:32.197Z,66.69
2022-08-07T20:03:33.636Z,66.95
2022-08-07T20:06:15.249Z,66.81
2022-08-07T20:09:01.961Z,67.13
2022-08-07T20:12:00.816Z,67.21
2022-08-07T20:14:32.946Z,67.12
2022-08-07T20:17:06.231Z,67.45
2022-08-07T20:19:47.919Z,67.68
2022-08-07T20:22:29.124Z,67.82
2022-08-07T20:25:12.953Z,67.98
2022-08-07T20:27:54.333Z,68.02
2022-08-07T20:30:36.786Z,68.03
2022-08-07T20:33:08.940Z,68.22
2022-08-07T20:36:01.364Z,68.33
2022-08-07T20:38:33.989Z,68.44
2022-08-07T20:41:05.545Z,68.46
2022-08-07T20:43:47.524Z,68.43
2022-08-07T20:46:26.777Z,68.63
2022-08-07T20:49:58.389Z,68.71
2022-08-07T20:51:51.125Z,68.61
2022-08-07T20:54:29.353Z,68.56
2022-08-07T20:57:06.952Z,68.61
2022-08-07T21:00:08.251Z,68.82
2022-08-07T21:02:54.098Z,68.97
2022-08-07T21:05:56.329Z,68.98
2022-08-07T21:08:51.496Z,69.11
2022-08-07T21:11:28.847Z,69.34
2022-08-07T21:14:31.931Z,69.52
2022-08-07T21:18:09.078Z,69.26
2022-08-07T21:20:09.935Z,69.40
2022-08-07T21:22:44.782Z,69.43
2022-08-07T21:25:20.130Z,69.62
2022-08-07T21:28:16.627Z,69.68
2022-08-07T21:31:06.755Z,69.79
2022-08-07T21:34:03.088Z,69.78
2022-08-07T21:36:50.019Z,69.89
2022-08-07T21:39:46.757Z,70.04
2022-08-07T21:42:42.879Z,70.08
2022-08-07T21:45:42.139Z,70.32
2022-08-07T21:48:33.294Z,70.22
2022-08-07T21:51:32.039Z,70.35
2022-08-07T21:54:18.686Z,70.51
2022-08-07T21:57:04.723Z,70.55
2022-08-07T22:00:02.741Z,70.86
2022-08-07T22:03:00.240Z,70.92
2022-08-07T22:05:44.594Z,71.01
2022-08-07T22:08:19.680Z,71.15
2022-08-07T22:10:53.945Z,71.45
2022-08-07T22:13:52.190Z,71.64
2022-08-07T22:16:38.652Z,71.69
2022-08-07T22:19:30.801Z,71.82
2022-08-07T22:22:21.310Z,71.62
2022-08-07T22:25:36.237Z,71.74
2022-08-07T22:28:31.090Z,72.04
2022-08-07T22:31:10.141Z,72.02
2022-08-07T22:33:56.665Z,72.05
2022-08-07T22:36:53.230Z,72.20
2022-08-07T22:39:35.448Z,72.30
2022-08-07T22:42:29.374Z,72.43
2022-08-07T22:45:02.222Z,72.38
2022-08-07T22:47:40.087Z,72.46
2022-08-07T22:50:08.666Z,72.43
2022-08-07T22:52:39.950Z,72.50
2022-08-07T22:55:30.177Z,72.37
2022-08-07T22:58:28.208Z,72.34
2022-08-07T23:01:42.011Z,72.27
2022-08-07T23:06:04.794Z,72.51
2022-08-07T23:07:53.200Z,72.44
2022-08-07T23:10:45.279Z,72.33
2022-08-07T23:13:48.929Z,72.23
2022-08-07T23:17:02.479Z,72.34
2022-08-07T23:30:36.977Z,73.02
2022-08-07T23:34:22.553Z,73.09
2022-08-07T23:37:18.939Z,73.03
2022-08-07T23:40:01.148Z,73.27
2022-08-07T23:42:38.698Z,73.27
2022-08-07T23:46:01.825Z,73.36
2022-08-07T23:48:51.253Z,73.39
2022-08-07T23:53:06.514Z,73.42
2022-08-07T23:55:09.662Z,73.46
2022-08-07T23:57:44.590Z,73.41
